sensor_id;sensor_type;location;lat;lon;timestamp;pressure;altitude;pressure_sealevel;temperature;humidity
56944;BME280;42848;42.524;12.052;2023-03-16T00:00:39;96604.22;;;5.96;100.00
56944;BME280;42848;42.524;12.052;2023-03-16T00:03:05;96609.94;;;5.90;100.00
56944;BME280;42848;42.524;12.052;2023-03-16T00:05:30;96600.56;;;5.87;100.00
56944;BME280;42848;42.524;12.052;2023-03-16T00:07:56;96608.16;;;5.85;100.00
56944;BME280;42848;42.524;12.052;2023-03-16T00:10:22;96606.59;;;5.79;100.00
56944;BME280;42848;42.524;12.052;2023-03-16T00:12:55;96612.84;;;5.75;100.00
56944;BME280;42848;42.524;12.052;2023-03-16T00:15:21;96610.53;;;5.87;100.00
56944;BME280;42848;42.524;12.052;2023-03-16T00:17:47;96603.13;;;5.79;100.00
56944;BME280;42848;42.524;12.052;2023-03-16T00:20:13;96613.75;;;5.70;100.00
56944;BME280;42848;42.524;12.052;2023-03-16T00:22:39;96620.28;;;5.64;100.00
56944;BME280;42848;42.524;12.052;2023-03-16T00:25:08;96621.81;;;5.70;100.00
56944;BME280;42848;42.524;12.052;2023-03-16T00:27:34;96622.97;;;5.64;100.00
56944;BME280;42848;42.524;12.052;2023-03-16T00:29:59;96626.75;;;5.63;100.00
56944;BME280;42848;42.524;12.052;2023-03-16T00:32:30;96623.56;;;5.61;100.00
56944;BME280;42848;42.524;12.052;2023-03-16T00:34:56;96621.59;;;5.66;100.00
56944;BME280;42848;42.524;12.052;2023-03-16T00:37:24;96626.75;;;5.63;100.00
56944;BME280;42848;42.524;12.052;2023-03-16T00:39:50;96629.16;;;5.64;100.00
56944;BME280;42848;42.524;12.052;2023-03-16T00:42:17;96624.56;;;5.65;100.00
56944;BME280;42848;42.524;12.052;2023-03-16T00:44:44;96605.56;;;5.75;100.00
56944;BME280;42848;42.524;12.052;2023-03-16T00:47:11;96613.25;;;5.68;100.00
56944;BME280;42848;42.524;12.052;2023-03-16T00:49:41;96615.94;;;5.68;100.00
56944;BME280;42848;42.524;12.052;2023-03-16T00:52:09;96608.50;;;5.60;100.00
56944;BME280;42848;42.524;12.052;2023-03-16T00:54:43;96597.44;;;5.61;100.00
56944;BME280;42848;42.524;12.052;2023-03-16T00:57:11;96601.53;;;5.59;100.00
56944;BME280;42848;42.524;12.052;2023-03-16T00:59:37;96590.50;;;5.74;100.00
56944;BME280;42848;42.524;12.052;2023-03-16T01:02:05;96587.25;;;5.58;100.00
56944;BME280;42848;42.524;12.052;2023-03-16T01:04:32;96587.25;;;5.58;100.00
56944;BME280;42848;42.524;12.052;2023-03-16T01:06:59;96585.63;;;5.57;100.00
56944;BME280;42848;42.524;12.052;2023-03-16T01:09:24;96594.00;;;5.56;100.00
56944;BME280;42848;42.524;12.052;2023-03-16T01:11:50;96591.59;;;5.54;100.00
56944;BME280;42848;42.524;12.052;2023-03-16T01:14:19;96596.47;;;5.52;100.00
56944;BME280;42848;42.524;12.052;2023-03-16T01:16:45;96603.75;;;5.52;100.00
56944;BME280;42848;42.524;12.052;2023-03-16T01:19:12;96594.72;;;5.42;100.00
56944;BME280;42848;42.524;12.052;2023-03-16T01:21:39;96593.13;;;5.41;100.00
56944;BME280;42848;42.524;12.052;2023-03-16T01:24:07;96601.50;;;5.40;100.00
56944;BME280;42848;42.524;12.052;2023-03-16T01:26:33;96600.53;;;5.31;100.00
56944;BME280;42848;42.524;12.052;2023-03-16T01:28:59;96608.84;;;5.34;100.00
56944;BME280;42848;42.524;12.052;2023-03-16T01:31:27;96606.13;;;5.34;100.00
56944;BME280;42848;42.524;12.052;2023-03-16T01:33:54;96605.50;;;5.42;100.00
56944;BME280;42848;42.524;12.052;2023-03-16T01:36:20;96611.47;;;5.39;100.00
56944;BME280;42848;42.524;12.052;2023-03-16T01:38:46;96613.13;;;5.35;100.00
56944;BME280;42848;42.524;12.052;2023-03-16T01:41:13;96610.50;;;5.30;100.00
56944;BME280;42848;42.524;12.052;2023-03-16T01:43:40;96610.22;;;5.32;100.00
56944;BME280;42848;42.524;12.052;2023-03-16T01:48:41;96620.41;;;5.35;100.00
56944;BME280;42848;42.524;12.052;2023-03-16T01:51:36;96621.19;;;5.35;100.00
56944;BME280;42848;42.524;12.052;2023-03-16T01:54:07;96621.13;;;5.22;100.00
56944;BME280;42848;42.524;12.052;2023-03-16T01:56:39;96615.47;;;5.18;100.00
56944;BME280;42848;42.524;12.052;2023-03-16T01:59:10;96619.28;;;5.17;100.00
56944;BME280;42848;42.524;12.052;2023-03-16T02:01:38;96630.63;;;5.14;100.00
56944;BME280;42848;42.524;12.052;2023-03-16T02:04:19;96625.75;;;5.16;100.00
56944;BME280;42848;42.524;12.052;2023-03-16T02:06:47;96611.34;;;5.26;100.00
56944;BME280;42848;42.524;12.052;2023-03-16T02:09:14;96606.91;;;5.16;100.00
56944;BME280;42848;42.524;12.052;2023-03-16T02:11:40;96607.13;;;5.20;100.00
56944;BME280;42848;42.524;12.052;2023-03-16T02:14:10;96596.00;;;5.26;99.66
56944;BME280;42848;42.524;12.052;2023-03-16T02:16:37;96614.94;;;5.21;98.59
56944;BME280;42848;42.524;12.052;2023-03-16T02:19:08;96603.34;;;5.21;98.07
56944;BME280;42848;42.524;12.052;2023-03-16T02:22:02;96607.28;;;5.28;97.97
56944;BME280;42848;42.524;12.052;2023-03-16T02:24:31;96611.25;;;5.12;97.45
56944;BME280;42848;42.524;12.052;2023-03-16T02:27:18;96609.66;;;5.11;98.37
56944;BME280;42848;42.524;12.052;2023-03-16T02:30:07;96608.38;;;5.27;98.49
56944;BME280;42848;42.524;12.052;2023-03-16T02:32:36;96614.00;;;5.07;97.47
56944;BME280;42848;42.524;12.052;2023-03-16T02:35:03;96605.94;;;5.07;97.87
56944;BME280;42848;42.524;12.052;2023-03-16T02:37:30;96602.75;;;5.05;98.51
56944;BME280;42848;42.524;12.052;2023-03-16T02:39:59;96596.47;;;5.09;97.44
56944;BME280;42848;42.524;12.052;2023-03-16T02:42:25;96588.66;;;5.13;97.18
56944;BME280;42848;42.524;12.052;2023-03-16T02:44:57;96596.59;;;4.99;97.79
56944;BME280;42848;42.524;12.052;2023-03-16T02:49:48;96591.81;;;4.96;95.80
56944;BME280;42848;42.524;12.052;2023-03-16T02:52:14;96587.44;;;5.00;95.20
56944;BME280;42848;42.524;12.052;2023-03-16T02:54:40;96585.00;;;5.04;95.07
56944;BME280;42848;42.524;12.052;2023-03-16T02:57:05;96592.63;;;4.97;94.31
56944;BME280;42848;42.524;12.052;2023-03-16T02:59:31;96581.84;;;4.97;93.95
56944;BME280;42848;42.524;12.052;2023-03-16T03:01:57;96580.00;;;4.92;94.44
56944;BME280;42848;42.524;12.052;2023-03-16T03:04:23;96585.06;;;4.99;93.01
56944;BME280;42848;42.524;12.052;2023-03-16T03:06:49;96590.44;;;4.99;91.68
56944;BME280;42848;42.524;12.052;2023-03-16T03:09:16;96578.06;;;4.98;91.35
56944;BME280;42848;42.524;12.052;2023-03-16T03:11:43;96579.16;;;4.97;89.92
56944;BME280;42848;42.524;12.052;2023-03-16T03:14:09;96570.63;;;4.90;91.13
56944;BME280;42848;42.524;12.052;2023-03-16T03:16:34;96580.25;;;4.96;90.84
56944;BME280;42848;42.524;12.052;2023-03-16T03:19:00;96569.03;;;4.89;89.32
56944;BME280;42848;42.524;12.052;2023-03-16T03:21:28;96567.09;;;4.94;89.43
56944;BME280;42848;42.524;12.052;2023-03-16T03:23:54;96580.19;;;5.01;89.03
56944;BME280;42848;42.524;12.052;2023-03-16T03:26:20;96580.81;;;4.93;88.96
56944;BME280;42848;42.524;12.052;2023-03-16T03:28:46;96579.63;;;4.80;89.44
56944;BME280;42848;42.524;12.052;2023-03-16T03:31:13;96580.72;;;4.79;90.73
56944;BME280;42848;42.524;12.052;2023-03-16T03:33:40;96583.09;;;4.80;90.77
56944;BME280;42848;42.524;12.052;2023-03-16T03:36:05;96583.50;;;4.93;90.34
56944;BME280;42848;42.524;12.052;2023-03-16T03:38:31;96583.00;;;4.91;90.06
56944;BME280;42848;42.524;12.052;2023-03-16T03:40:57;96575.53;;;4.82;88.40
56944;BME280;42848;42.524;12.052;2023-03-16T03:43:25;96591.41;;;4.84;90.18
56944;BME280;42848;42.524;12.052;2023-03-16T03:45:58;96590.41;;;4.75;89.52
56944;BME280;42848;42.524;12.052;2023-03-16T03:48:24;96588.03;;;4.73;89.34
56944;BME280;42848;42.524;12.052;2023-03-16T03:50:50;96597.66;;;4.79;89.14
56944;BME280;42848;42.524;12.052;2023-03-16T03:53:17;96595.53;;;4.76;89.08
56944;BME280;42848;42.524;12.052;2023-03-16T03:55:43;96593.91;;;4.75;88.22
56944;BME280;42848;42.524;12.052;2023-03-16T03:58:08;96602.56;;;4.72;87.19
56944;BME280;42848;42.524;12.052;2023-03-16T04:00:34;96606.34;;;4.71;87.75
56944;BME280;42848;42.524;12.052;2023-03-16T04:03:00;96609.53;;;4.73;86.86
56944;BME280;42848;42.524;12.052;2023-03-16T04:05:26;96605.75;;;4.74;86.32
56944;BME280;42848;42.524;12.052;2023-03-16T04:07:56;96611.72;;;4.71;85.25
56944;BME280;42848;42.524;12.052;2023-03-16T04:10:26;96611.50;;;4.68;84.10
56944;BME280;42848;42.524;12.052;2023-03-16T04:12:54;96617.41;;;4.65;83.46
56944;BME280;42848;42.524;12.052;2023-03-16T04:15:20;96610.09;;;4.70;83.41
56944;BME280;42848;42.524;12.052;2023-03-16T04:17:47;96611.75;;;4.66;80.97
56944;BME280;42848;42.524;12.052;2023-03-16T04:20:14;96622.78;;;4.65;82.20
56944;BME280;42848;42.524;12.052;2023-03-16T04:22:44;96622.25;;;4.68;80.87
56944;BME280;42848;42.524;12.052;2023-03-16T04:25:12;96625.66;;;4.73;79.29
56944;BME280;42848;42.524;12.052;2023-03-16T04:27:39;96622.69;;;4.75;77.83
56944;BME280;42848;42.524;12.052;2023-03-16T04:30:07;96632.09;;;4.77;76.49
56944;BME280;42848;42.524;12.052;2023-03-16T04:32:36;96632.03;;;4.82;76.15
56944;BME280;42848;42.524;12.052;2023-03-16T04:35:02;96632.19;;;4.67;77.03
56944;BME280;42848;42.524;12.052;2023-03-16T04:37:28;96635.06;;;4.76;75.82
56944;BME280;42848;42.524;12.052;2023-03-16T04:39:53;96639.41;;;4.72;77.10
56944;BME280;42848;42.524;12.052;2023-03-16T04:42:19;96633.78;;;4.68;76.41
56944;BME280;42848;42.524;12.052;2023-03-16T04:44:46;96631.44;;;4.62;76.60
56944;BME280;42848;42.524;12.052;2023-03-16T04:47:14;96631.72;;;4.60;77.49
56944;BME280;42848;42.524;12.052;2023-03-16T04:49:39;96634.97;;;4.57;77.21
56944;BME280;42848;42.524;12.052;2023-03-16T04:52:06;96645.44;;;4.59;75.75
56944;BME280;42848;42.524;12.052;2023-03-16T04:54:32;96634.97;;;4.57;76.12
56944;BME280;42848;42.524;12.052;2023-03-16T04:56:58;96635.59;;;4.49;77.08
56944;BME280;42848;42.524;12.052;2023-03-16T04:59:26;96642.84;;;4.48;77.01
56944;BME280;42848;42.524;12.052;2023-03-16T05:01:52;96635.53;;;4.54;77.61
56944;BME280;42848;42.524;12.052;2023-03-16T05:04:18;96623.19;;;4.53;77.31
56944;BME280;42848;42.524;12.052;2023-03-16T05:06:44;96633.72;;;4.49;76.96
56944;BME280;42848;42.524;12.052;2023-03-16T05:09:10;96633.09;;;4.57;77.60
56944;BME280;42848;42.524;12.052;2023-03-16T05:11:36;96628.03;;;4.51;77.61
56944;BME280;42848;42.524;12.052;2023-03-16T05:14:02;96642.09;;;4.43;78.64
56944;BME280;42848;42.524;12.052;2023-03-16T05:16:29;96633.97;;;4.48;78.60
56944;BME280;42848;42.524;12.052;2023-03-16T05:18:59;96645.28;;;4.45;78.44
56944;BME280;42848;42.524;12.052;2023-03-16T05:21:25;96633.44;;;4.46;78.55
56944;BME280;42848;42.524;12.052;2023-03-16T05:23:50;96635.13;;;4.42;77.77
56944;BME280;42848;42.524;12.052;2023-03-16T05:26:17;96623.78;;;4.45;77.64
56944;BME280;42848;42.524;12.052;2023-03-16T05:28:43;96620.00;;;4.46;79.70
56944;BME280;42848;42.524;12.052;2023-03-16T05:31:10;96632.94;;;4.44;78.53
56944;BME280;42848;42.524;12.052;2023-03-16T05:33:36;96638.81;;;4.46;78.89
56944;BME280;42848;42.524;12.052;2023-03-16T05:36:02;96645.06;;;4.41;79.64
56944;BME280;42848;42.524;12.052;2023-03-16T05:38:28;96647.47;;;4.43;80.32
56944;BME280;42848;42.524;12.052;2023-03-16T05:40:56;96653.63;;;4.43;78.82
56944;BME280;42848;42.524;12.052;2023-03-16T05:43:26;96665.22;;;4.39;80.64
56944;BME280;42848;42.524;12.052;2023-03-16T05:45:54;96667.00;;;4.53;81.56
56944;BME280;42848;42.524;12.052;2023-03-16T05:48:20;96667.59;;;4.45;81.08
56944;BME280;42848;42.524;12.052;2023-03-16T05:50:46;96666.22;;;4.48;79.91
56944;BME280;42848;42.524;12.052;2023-03-16T05:53:12;96664.88;;;4.50;81.48
56944;BME280;42848;42.524;12.052;2023-03-16T05:55:39;96678.84;;;4.47;81.95
56944;BME280;42848;42.524;12.052;2023-03-16T05:58:05;96685.03;;;4.48;80.57
56944;BME280;42848;42.524;12.052;2023-03-16T06:00:31;96688.78;;;4.52;78.34
56944;BME280;42848;42.524;12.052;2023-03-16T06:02:57;96691.09;;;4.64;77.96
56944;BME280;42848;42.524;12.052;2023-03-16T06:05:23;96698.31;;;4.68;77.17
56944;BME280;42848;42.524;12.052;2023-03-16T06:07:50;96702.09;;;4.67;77.33
56944;BME280;42848;42.524;12.052;2023-03-16T06:10:17;96709.00;;;4.78;76.59
56944;BME280;42848;42.524;12.052;2023-03-16T06:12:43;96708.41;;;4.81;76.79
56944;BME280;42848;42.524;12.052;2023-03-16T06:15:09;96704.09;;;4.85;77.05
56944;BME280;42848;42.524;12.052;2023-03-16T06:17:36;96708.31;;;4.92;77.25
56944;BME280;42848;42.524;12.052;2023-03-16T06:20:04;96704.50;;;4.98;78.20
56944;BME280;42848;42.524;12.052;2023-03-16T06:22:35;96718.47;;;5.00;77.06
56944;BME280;42848;42.524;12.052;2023-03-16T06:25:01;96710.88;;;5.07;76.73
56944;BME280;42848;42.524;12.052;2023-03-16T06:27:26;96717.53;;;5.14;76.77
56944;BME280;42848;42.524;12.052;2023-03-16T06:29:52;96725.53;;;5.20;77.11
56944;BME280;42848;42.524;12.052;2023-03-16T06:32:18;96726.56;;;5.24;77.22
56944;BME280;42848;42.524;12.052;2023-03-16T06:34:44;96725.19;;;5.26;77.91
56944;BME280;42848;42.524;12.052;2023-03-16T06:37:10;96730.00;;;5.29;79.39
56944;BME280;42848;42.524;12.052;2023-03-16T06:39:35;96741.31;;;5.31;78.79
56944;BME280;42848;42.524;12.052;2023-03-16T06:42:01;96739.28;;;5.42;78.95
56944;BME280;42848;42.524;12.052;2023-03-16T06:44:29;96751.66;;;5.43;78.10
56944;BME280;42848;42.524;12.052;2023-03-16T06:46:54;96729.31;;;5.42;78.18
56944;BME280;42848;42.524;12.052;2023-03-16T06:49:20;96738.38;;;5.52;78.91
56944;BME280;42848;42.524;12.052;2023-03-16T06:51:46;96736.78;;;5.51;78.53
56944;BME280;42848;42.524;12.052;2023-03-16T06:54:12;96752.56;;;5.57;78.67
56944;BME280;42848;42.524;12.052;2023-03-16T06:56:37;96749.03;;;5.62;80.31
56944;BME280;42848;42.524;12.052;2023-03-16T06:59:03;96755.44;;;5.66;77.89
56944;BME280;42848;42.524;12.052;2023-03-16T07:01:29;96759.16;;;5.70;79.08
56944;BME280;42848;42.524;12.052;2023-03-16T07:03:54;96753.72;;;5.75;78.38
56944;BME280;42848;42.524;12.052;2023-03-16T07:06:20;96768.72;;;5.81;76.64
56944;BME280;42848;42.524;12.052;2023-03-16T07:08:46;96763.84;;;5.83;76.96
56944;BME280;42848;42.524;12.052;2023-03-16T07:11:11;96756.81;;;5.87;75.61
56944;BME280;42848;42.524;12.052;2023-03-16T07:13:40;96749.81;;;5.86;75.78
56944;BME280;42848;42.524;12.052;2023-03-16T07:16:06;96769.88;;;5.99;77.53
56944;BME280;42848;42.524;12.052;2023-03-16T07:18:32;96773.47;;;5.94;75.42
56944;BME280;42848;42.524;12.052;2023-03-16T07:20:58;96790.63;;;5.98;75.30
56944;BME280;42848;42.524;12.052;2023-03-16T07:23:24;96766.34;;;6.04;74.70
56944;BME280;42848;42.524;12.052;2023-03-16T07:25:50;96777.91;;;6.04;74.67
56944;BME280;42848;42.524;12.052;2023-03-16T07:28:17;96772.41;;;6.14;77.09
56944;BME280;42848;42.524;12.052;2023-03-16T07:30:46;96773.91;;;6.20;77.69
56944;BME280;42848;42.524;12.052;2023-03-16T07:33:12;96773.66;;;6.22;74.93
56944;BME280;42848;42.524;12.052;2023-03-16T07:35:37;96771.38;;;6.29;75.66
56944;BME280;42848;42.524;12.052;2023-03-16T07:38:03;96775.75;;;6.25;72.55
56944;BME280;42848;42.524;12.052;2023-03-16T07:40:29;96785.13;;;6.27;71.74
56944;BME280;42848;42.524;12.052;2023-03-16T07:42:55;96787.34;;;6.44;74.08
56944;BME280;42848;42.524;12.052;2023-03-16T07:45:21;96779.47;;;6.48;73.77
56944;BME280;42848;42.524;12.052;2023-03-16T07:47:47;96795.38;;;6.49;73.35
56944;BME280;42848;42.524;12.052;2023-03-16T07:50:12;96792.09;;;6.52;72.98
56944;BME280;42848;42.524;12.052;2023-03-16T07:52:40;96803.00;;;6.61;71.61
56944;BME280;42848;42.524;12.052;2023-03-16T07:55:06;96797.25;;;6.68;70.16
56944;BME280;42848;42.524;12.052;2023-03-16T07:57:32;96808.63;;;6.65;67.42
56944;BME280;42848;42.524;12.052;2023-03-16T07:59:58;96819.03;;;6.71;67.39
56944;BME280;42848;42.524;12.052;2023-03-16T08:02:24;96825.69;;;6.79;65.76
56944;BME280;42848;42.524;12.052;2023-03-16T08:04:49;96833.38;;;6.85;66.40
56944;BME280;42848;42.524;12.052;2023-03-16T08:07:16;96824.78;;;6.83;65.23
56944;BME280;42848;42.524;12.052;2023-03-16T08:09:41;96824.78;;;6.83;64.26
56944;BME280;42848;42.524;12.052;2023-03-16T08:12:07;96828.13;;;6.94;63.33
56944;BME280;42848;42.524;12.052;2023-03-16T08:14:34;96837.56;;;6.97;64.36
56944;BME280;42848;42.524;12.052;2023-03-16T08:17:02;96843.16;;;7.00;66.86
56944;BME280;42848;42.524;12.052;2023-03-16T08:19:28;96846.31;;;7.21;68.20
56944;BME280;42848;42.524;12.052;2023-03-16T08:21:55;96848.06;;;7.31;69.82
56944;BME280;42848;42.524;12.052;2023-03-16T08:24:22;96855.09;;;7.32;66.11
56944;BME280;42848;42.524;12.052;2023-03-16T08:26:47;96858.66;;;7.27;61.58
56944;BME280;42848;42.524;12.052;2023-03-16T08:29:13;96859.22;;;7.43;68.68
56944;BME280;42848;42.524;12.052;2023-03-16T08:31:39;96862.47;;;7.40;60.13
56944;BME280;42848;42.524;12.052;2023-03-16T08:34:08;96862.91;;;7.47;62.81
56944;BME280;42848;42.524;12.052;2023-03-16T08:36:34;96870.50;;;7.45;60.15
56944;BME280;42848;42.524;12.052;2023-03-16T08:39:02;96866.72;;;7.46;59.37
56944;BME280;42848;42.524;12.052;2023-03-16T08:41:31;96880.72;;;7.48;57.35
56944;BME280;42848;42.524;12.052;2023-03-16T08:43:57;96881.16;;;7.55;58.46
56944;BME280;42848;42.524;12.052;2023-03-16T08:46:24;96882.38;;;7.63;58.94
56944;BME280;42848;42.524;12.052;2023-03-16T08:48:50;96884.78;;;7.64;58.74
56944;BME280;42848;42.524;12.052;2023-03-16T08:51:17;96882.06;;;7.64;58.93
56944;BME280;42848;42.524;12.052;2023-03-16T08:53:43;96884.69;;;7.69;59.50
56944;BME280;42848;42.524;12.052;2023-03-16T08:56:11;96885.28;;;7.66;57.08
56944;BME280;42848;42.524;12.052;2023-03-16T08:58:38;96892.00;;;7.83;59.36
56944;BME280;42848;42.524;12.052;2023-03-16T09:01:06;96892.13;;;7.91;60.00
56944;BME280;42848;42.524;12.052;2023-03-16T09:03:34;96892.84;;;7.97;60.25
56944;BME280;42848;42.524;12.052;2023-03-16T09:06:01;96889.63;;;7.95;61.45
56944;BME280;42848;42.524;12.052;2023-03-16T09:08:27;96899.66;;;8.08;59.22
56944;BME280;42848;42.524;12.052;2023-03-16T09:11:05;96903.47;;;8.07;56.48
56944;BME280;42848;42.524;12.052;2023-03-16T09:13:33;96894.66;;;8.15;54.72
56944;BME280;42848;42.524;12.052;2023-03-16T09:16:00;96890.25;;;8.19;53.52
56944;BME280;42848;42.524;12.052;2023-03-16T09:18:26;96883.03;;;8.28;51.22
56944;BME280;42848;42.524;12.052;2023-03-16T09:20:56;96900.50;;;8.36;51.33
56944;BME280;42848;42.524;12.052;2023-03-16T09:23:22;96898.66;;;8.32;50.71
56944;BME280;42848;42.524;12.052;2023-03-16T09:25:48;96908.31;;;8.38;50.92
56944;BME280;42848;42.524;12.052;2023-03-16T09:28:13;96904.50;;;8.39;50.56
56944;BME280;42848;42.524;12.052;2023-03-16T09:30:40;96894.66;;;8.29;47.81
56944;BME280;42848;42.524;12.052;2023-03-16T09:33:06;96895.28;;;8.40;48.80
56944;BME280;42848;42.524;12.052;2023-03-16T09:35:32;96907.31;;;8.61;49.88
56944;BME280;42848;42.524;12.052;2023-03-16T09:37:58;96911.81;;;8.66;51.14
56944;BME280;42848;42.524;12.052;2023-03-16T09:40:28;96911.28;;;8.77;50.81
56944;BME280;42848;42.524;12.052;2023-03-16T09:43:40;96906.09;;;8.67;49.09
56944;BME280;42848;42.524;12.052;2023-03-16T09:46:27;96911.19;;;8.82;50.02
56944;BME280;42848;42.524;12.052;2023-03-16T09:48:56;96903.06;;;8.82;49.29
56944;BME280;42848;42.524;12.052;2023-03-16T09:51:35;96907.97;;;8.80;48.00
56944;BME280;42848;42.524;12.052;2023-03-16T09:54:17;96901.06;;;8.74;47.04
56944;BME280;42848;42.524;12.052;2023-03-16T09:56:45;96914.16;;;8.95;48.63
56944;BME280;42848;42.524;12.052;2023-03-16T09:59:14;96908.63;;;9.00;47.09
56944;BME280;42848;42.524;12.052;2023-03-16T10:02:21;96898.78;;;9.04;48.24
56944;BME280;42848;42.524;12.052;2023-03-16T10:05:14;96889.56;;;9.05;46.69
56944;BME280;42848;42.524;12.052;2023-03-16T10:10:42;96899.31;;;9.06;43.88
56944;BME280;42848;42.524;12.052;2023-03-16T10:13:33;96892.06;;;9.15;44.94
56944;BME280;42848;42.524;12.052;2023-03-16T10:16:05;96883.63;;;9.17;44.33
56944;BME280;42848;42.524;12.052;2023-03-16T10:18:44;96884.50;;;9.26;44.58
56944;BME280;42848;42.524;12.052;2023-03-16T10:21:13;96885.94;;;9.32;44.78
56944;BME280;42848;42.524;12.052;2023-03-16T10:23:40;96891.00;;;9.47;44.08
56944;BME280;42848;42.524;12.052;2023-03-16T10:26:20;96888.44;;;9.42;41.51
56944;BME280;42848;42.524;12.052;2023-03-16T10:28:47;96886.00;;;9.40;41.88
56944;BME280;42848;42.524;12.052;2023-03-16T10:31:21;96899.75;;;9.44;41.10
56944;BME280;42848;42.524;12.052;2023-03-16T10:33:49;96892.19;;;9.55;42.70
56944;BME280;42848;42.524;12.052;2023-03-16T10:36:28;96888.34;;;9.56;42.14
56944;BME280;42848;42.524;12.052;2023-03-16T10:39:34;96896.44;;;9.47;40.24
56944;BME280;42848;42.524;12.052;2023-03-16T10:41:56;96882.31;;;9.59;41.91
56944;BME280;42848;42.524;12.052;2023-03-16T10:44:26;96902.91;;;9.37;38.64
56944;BME280;42848;42.524;12.052;2023-03-16T10:47:04;96888.63;;;9.46;39.22
56944;BME280;42848;42.524;12.052;2023-03-16T10:49:41;96896.50;;;9.56;39.51
56944;BME280;42848;42.524;12.052;2023-03-16T10:55:00;96896.91;;;9.72;39.77
56944;BME280;42848;42.524;12.052;2023-03-16T10:57:33;96892.66;;;9.57;37.93
56944;BME280;42848;42.524;12.052;2023-03-16T11:00:27;96900.28;;;9.77;38.82
56944;BME280;42848;42.524;12.052;2023-03-16T11:02:54;96908.25;;;9.74;37.78
56944;BME280;42848;42.524;12.052;2023-03-16T11:05:27;96899.16;;;9.78;38.59
56944;BME280;42848;42.524;12.052;2023-03-16T11:08:00;96901.44;;;9.85;37.72
56944;BME280;42848;42.524;12.052;2023-03-16T11:10:33;96911.31;;;9.81;38.83
56944;BME280;42848;42.524;12.052;2023-03-16T11:13:11;96910.88;;;9.87;39.56
56944;BME280;42848;42.524;12.052;2023-03-16T11:15:45;96917.41;;;9.86;38.97
56944;BME280;42848;42.524;12.052;2023-03-16T11:18:22;96920.47;;;9.93;40.25
56944;BME280;42848;42.524;12.052;2023-03-16T11:20:52;96928.34;;;10.04;40.67
56944;BME280;42848;42.524;12.052;2023-03-16T11:23:28;96925.53;;;9.86;39.78
56944;BME280;42848;42.524;12.052;2023-03-16T11:25:58;96916.28;;;9.87;41.32
56944;BME280;42848;42.524;12.052;2023-03-16T11:28:36;96931.69;;;10.01;41.68
56944;BME280;42848;42.524;12.052;2023-03-16T11:31:47;96927.13;;;9.87;41.40
56944;BME280;42848;42.524;12.052;2023-03-16T11:34:25;96912.75;;;10.09;40.29
56944;BME280;42848;42.524;12.052;2023-03-16T11:53:03;96931.91;;;10.13;41.41
56944;BME280;42848;42.524;12.052;2023-03-16T11:58:39;96940.34;;;10.11;42.83
56944;BME280;42848;42.524;12.052;2023-03-16T12:01:26;96945.84;;;10.20;42.64
56944;BME280;42848;42.524;12.052;2023-03-16T12:12:33;96944.44;;;10.53;45.15
56944;BME280;42848;42.524;12.052;2023-03-16T12:15:16;96923.47;;;10.45;44.23
56944;BME280;42848;42.524;12.052;2023-03-16T12:17:46;96920.13;;;10.48;43.69
56944;BME280;42848;42.524;12.052;2023-03-16T12:20:25;96923.59;;;10.40;42.50
56944;BME280;42848;42.524;12.052;2023-03-16T12:22:57;96916.84;;;10.29;42.11
56944;BME280;42848;42.524;12.052;2023-03-16T12:25:30;96912.13;;;10.43;43.54
56944;BME280;42848;42.524;12.052;2023-03-16T12:27:59;96907.31;;;10.40;43.24
56944;BME280;42848;42.524;12.052;2023-03-16T12:39:04;96902.88;;;10.44;42.58
56944;BME280;42848;42.524;12.052;2023-03-16T12:41:40;96901.00;;;10.53;43.77
56944;BME280;42848;42.524;12.052;2023-03-16T12:44:34;96898.41;;;10.48;43.67
56944;BME280;42848;42.524;12.052;2023-03-16T12:49:52;96894.91;;;10.57;43.71
56944;BME280;42848;42.524;12.052;2023-03-16T12:52:18;96888.38;;;10.58;44.18
56944;BME280;42848;42.524;12.052;2023-03-16T12:55:12;96895.91;;;10.61;44.46
56944;BME280;42848;42.524;12.052;2023-03-16T12:57:40;96884.91;;;10.74;44.70
56944;BME280;42848;42.524;12.052;2023-03-16T13:00:08;96880.56;;;10.65;43.45
56944;BME280;42848;42.524;12.052;2023-03-16T13:02:41;96879.81;;;10.81;44.90
56944;BME280;42848;42.524;12.052;2023-03-16T13:05:12;96868.41;;;10.53;44.29
56944;BME280;42848;42.524;12.052;2023-03-16T13:07:46;96875.91;;;10.48;43.51
56944;BME280;42848;42.524;12.052;2023-03-16T13:10:14;96856.44;;;10.54;43.76
56944;BME280;42848;42.524;12.052;2023-03-16T13:12:41;96861.69;;;10.51;43.76
56944;BME280;42848;42.524;12.052;2023-03-16T13:15:25;96859.00;;;10.68;43.88
56944;BME280;42848;42.524;12.052;2023-03-16T13:20:52;96872.28;;;10.70;45.27
56944;BME280;42848;42.524;12.052;2023-03-16T13:23:22;96882.34;;;10.61;44.27
56944;BME280;42848;42.524;12.052;2023-03-16T13:26:17;96896.53;;;10.58;43.43
56944;BME280;42848;42.524;12.052;2023-03-16T13:28:49;96873.91;;;10.71;44.53
56944;BME280;42848;42.524;12.052;2023-03-16T13:31:26;96883.78;;;10.67;44.61
56944;BME280;42848;42.524;12.052;2023-03-16T13:33:54;96874.66;;;10.63;44.86
56944;BME280;42848;42.524;12.052;2023-03-16T13:36:22;96889.19;;;10.67;44.91
56944;BME280;42848;42.524;12.052;2023-03-16T13:39:02;96866.03;;;10.69;45.48
56944;BME280;42848;42.524;12.052;2023-03-16T13:41:28;96875.19;;;10.82;44.47
56944;BME280;42848;42.524;12.052;2023-03-16T13:43:54;96883.16;;;10.87;45.28
56944;BME280;42848;42.524;12.052;2023-03-16T13:46:27;96865.13;;;10.91;45.67
56944;BME280;42848;42.524;12.052;2023-03-16T13:48:57;96882.88;;;10.97;46.16
56944;BME280;42848;42.524;12.052;2023-03-16T13:51:22;96879.47;;;10.74;44.74
56944;BME280;42848;42.524;12.052;2023-03-16T13:53:48;96877.41;;;10.80;45.29
56944;BME280;42848;42.524;12.052;2023-03-16T13:56:18;96874.25;;;11.13;46.99
56944;BME280;42848;42.524;12.052;2023-03-16T13:58:49;96870.41;;;11.14;47.08
56944;BME280;42848;42.524;12.052;2023-03-16T14:01:29;96855.22;;;11.04;46.69